EZY41DU EGGW-BIKF
Flight info
| Callsign | EZY41DU |
|---|---|
| Flight time | 2h 50m |
| Altitude | 38000 |
| Route | OLNEY T420 TNT UN57 POL UN601 RIBEL DCT ERSON DCT BARKU DCT RATSU/M077F380 DCT ALDAN DCT ASRUN ASRUN3K |
| Aircraft | A20N/M-SDE2E3FGHIRWXY/LB1 |
Departure
| Time | 2026-04-28 22:40 |
|---|---|
| Airport | London Luton Airport (EGGW) |
Arrival
| Time | 2026-04-29 01:30 |
|---|---|
| Airport | Keflavik International Airport (BIKF) |
| Time | Latitude | Longitude | Altitude | Speed | Heading |
|---|---|---|---|---|---|
| 2026-04-28 22:27 | 51.87888 | -0.37924 | 523 ft | 0 kts | 73° |
| 2026-04-28 22:31 | 51.87885 | -0.37942 | 523 ft | 4 kts | 73° |
| 2026-04-28 22:31 | 51.87878 | -0.37975 | 523 ft | 4 kts | 75° |
| 2026-04-28 22:31 | 51.87880 | -0.38009 | 523 ft | 4 kts | 156° |
| 2026-04-28 22:32 | 51.87904 | -0.38017 | 523 ft | 2 kts | 174° |
| 2026-04-28 22:32 | 51.87907 | -0.38017 | 523 ft | 0 kts | 174° |
| 2026-04-28 22:35 | 51.87906 | -0.38017 | 523 ft | 1 kts | 173° |
| 2026-04-28 22:35 | 51.87893 | -0.38015 | 523 ft | 0 kts | 173° |
| 2026-04-28 22:36 | 51.87882 | -0.38013 | 523 ft | 3 kts | 173° |
| 2026-04-28 22:36 | 51.87854 | -0.38000 | 523 ft | 6 kts | 161° |
| 2026-04-28 22:36 | 51.87819 | -0.37954 | 523 ft | 8 kts | 136° |
| 2026-04-28 22:36 | 51.87790 | -0.37870 | 523 ft | 9 kts | 116° |
| 2026-04-28 22:37 | 51.87758 | -0.37762 | 523 ft | 12 kts | 116° |
| 2026-04-28 22:37 | 51.87714 | -0.37616 | 518 ft | 18 kts | 115° |
| 2026-04-28 22:37 | 51.87656 | -0.37457 | 521 ft | 12 kts | 152° |
| 2026-04-28 22:37 | 51.87605 | -0.37456 | 522 ft | 8 kts | 181° |
| 2026-04-28 22:38 | 51.87514 | -0.37499 | 521 ft | 20 kts | 223° |
| 2026-04-28 22:38 | 51.87490 | -0.37645 | 523 ft | 12 kts | 242° |
| 2026-04-28 22:38 | 51.87461 | -0.37809 | 522 ft | 18 kts | 255° |
| 2026-04-28 22:38 | 51.87419 | -0.38007 | 524 ft | 19 kts | 236° |
| 2026-04-28 22:39 | 51.87333 | -0.38094 | 522 ft | 15 kts | 202° |
| 2026-04-28 22:39 | 51.87253 | -0.38074 | 523 ft | 6 kts | 109° |
| 2026-04-28 22:39 | 51.87261 | -0.38022 | 523 ft | 9 kts | 74° |
| 2026-04-28 22:39 | 51.87356 | -0.37591 | 520 ft | 79 kts | 66° |
| 2026-04-28 22:40 | 51.87584 | -0.36438 | 523 ft | 135 kts | 75° |
| 2026-04-28 22:40 | 51.87854 | -0.34808 | 1029 ft | 152 kts | 71° |
| 2026-04-28 22:40 | 51.88163 | -0.33193 | 2108 ft | 144 kts | 72° |
| 2026-04-28 22:40 | 51.88429 | -0.31742 | 2763 ft | 137 kts | 76° |
| 2026-04-28 22:41 | 51.88701 | -0.30116 | 3155 ft | 161 kts | 76° |
| 2026-04-28 22:41 | 51.89015 | -0.28243 | 3578 ft | 185 kts | 76° |
| 2026-04-28 22:41 | 51.89634 | -0.26261 | 4062 ft | 211 kts | 58° |
| 2026-04-28 22:41 | 51.90720 | -0.24476 | 4622 ft | 237 kts | 38° |
| 2026-04-28 22:42 | 51.92324 | -0.23500 | 5339 ft | 259 kts | 11° |
| 2026-04-28 22:42 | 51.94153 | -0.23907 | 6206 ft | 277 kts | 342° |
| 2026-04-28 22:42 | 51.95769 | -0.25715 | 7090 ft | 291 kts | 314° |
| 2026-04-28 22:42 | 51.96782 | -0.28593 | 7926 ft | 300 kts | 287° |
| 2026-04-28 22:43 | 51.96957 | -0.31969 | 8786 ft | 305 kts | 260° |
| 2026-04-28 22:43 | 51.96241 | -0.35185 | 9659 ft | 305 kts | 233° |
| 2026-04-28 22:43 | 51.95065 | -0.38055 | 10496 ft | 310 kts | 241° |
| 2026-04-28 22:43 | 51.94414 | -0.41497 | 10909 ft | 333 kts | 263° |
| 2026-04-28 22:44 | 51.94587 | -0.45347 | 11165 ft | 355 kts | 286° |
| 2026-04-28 22:44 | 51.95662 | -0.48982 | 11715 ft | 361 kts | 309° |
| 2026-04-28 22:44 | 51.97470 | -0.51775 | 12473 ft | 359 kts | 329° |
| 2026-04-28 22:44 | 51.99614 | -0.53880 | 13240 ft | 363 kts | 332° |
| 2026-04-28 22:45 | 52.01750 | -0.56129 | 14004 ft | 370 kts | 327° |
| 2026-04-28 22:45 | 52.03783 | -0.58741 | 14695 ft | 376 kts | 322° |
| 2026-04-28 22:45 | 52.05718 | -0.61630 | 15379 ft | 381 kts | 319° |
| 2026-04-28 22:45 | 52.07609 | -0.64691 | 16052 ft | 386 kts | 317° |
| 2026-04-28 22:46 | 52.09485 | -0.67832 | 16710 ft | 390 kts | 317° |
| 2026-04-28 22:46 | 52.11379 | -0.71029 | 17369 ft | 394 kts | 319° |
| 2026-04-28 22:46 | 52.13443 | -0.73949 | 17997 ft | 393 kts | 328° |
| 2026-04-28 22:46 | 52.15741 | -0.76359 | 18660 ft | 394 kts | 334° |
| 2026-04-28 22:47 | 52.18099 | -0.78670 | 19238 ft | 397 kts | 334° |
| 2026-04-28 22:47 | 52.20440 | -0.80985 | 19800 ft | 400 kts | 334° |
| 2026-04-28 22:47 | 52.22827 | -0.83353 | 20368 ft | 404 kts | 334° |
| 2026-04-28 22:47 | 52.25235 | -0.85744 | 20938 ft | 407 kts | 335° |
| 2026-04-28 22:48 | 52.27662 | -0.88153 | 21487 ft | 410 kts | 335° |
| 2026-04-28 22:48 | 52.30110 | -0.90586 | 22051 ft | 413 kts | 335° |
| 2026-04-28 22:48 | 52.32578 | -0.93043 | 22585 ft | 417 kts | 335° |
| 2026-04-28 22:48 | 52.35065 | -0.95521 | 23142 ft | 420 kts | 335° |
| 2026-04-28 22:49 | 52.37571 | -0.98021 | 23684 ft | 424 kts | 336° |
| 2026-04-28 22:49 | 52.40095 | -1.00543 | 24172 ft | 426 kts | 336° |
| 2026-04-28 22:49 | 52.42631 | -1.03080 | 24635 ft | 429 kts | 336° |
| 2026-04-28 22:49 | 52.45182 | -1.05638 | 25087 ft | 431 kts | 336° |
| 2026-04-28 22:50 | 52.47744 | -1.08209 | 25535 ft | 433 kts | 336° |
| 2026-04-28 22:50 | 52.50316 | -1.10793 | 25980 ft | 435 kts | 336° |
| 2026-04-28 22:50 | 52.52902 | -1.13394 | 26404 ft | 437 kts | 336° |
| 2026-04-28 22:50 | 52.55498 | -1.16009 | 26833 ft | 439 kts | 336° |
| 2026-04-28 22:51 | 52.58109 | -1.18643 | 27249 ft | 441 kts | 336° |
| 2026-04-28 22:51 | 52.60731 | -1.21290 | 27659 ft | 443 kts | 336° |
| 2026-04-28 22:51 | 52.63358 | -1.23946 | 28062 ft | 445 kts | 336° |
| 2026-04-28 22:51 | 52.66005 | -1.26624 | 28453 ft | 447 kts | 336° |
| 2026-04-28 22:52 | 52.68655 | -1.29310 | 28817 ft | 449 kts | 336° |
| 2026-04-28 22:52 | 52.71321 | -1.32016 | 29164 ft | 451 kts | 336° |
| 2026-04-28 22:52 | 52.73996 | -1.34738 | 29576 ft | 453 kts | 336° |
| 2026-04-28 22:52 | 52.76684 | -1.37477 | 29910 ft | 455 kts | 336° |
| 2026-04-28 22:53 | 52.79382 | -1.40232 | 30250 ft | 457 kts | 336° |
| 2026-04-28 22:53 | 52.82091 | -1.43001 | 30563 ft | 459 kts | 336° |
| 2026-04-28 22:53 | 52.84807 | -1.45781 | 30860 ft | 461 kts | 336° |
| 2026-04-28 22:53 | 52.87536 | -1.48578 | 31154 ft | 462 kts | 336° |
| 2026-04-28 22:54 | 52.90277 | -1.51393 | 31444 ft | 464 kts | 336° |
| 2026-04-28 22:54 | 52.93017 | -1.54212 | 31798 ft | 464 kts | 336° |
| 2026-04-28 22:54 | 52.95755 | -1.57034 | 32190 ft | 463 kts | 336° |
| 2026-04-28 22:54 | 52.98486 | -1.59853 | 32571 ft | 462 kts | 336° |
| 2026-04-28 22:55 | 53.01205 | -1.62664 | 32946 ft | 460 kts | 336° |
| 2026-04-28 22:55 | 53.03930 | -1.65450 | 33320 ft | 457 kts | 339° |
| 2026-04-28 22:55 | 53.06704 | -1.67752 | 33702 ft | 447 kts | 345° |
| 2026-04-28 22:55 | 53.09628 | -1.69598 | 34080 ft | 442 kts | 348° |
| 2026-04-28 22:56 | 53.12469 | -1.71347 | 34442 ft | 441 kts | 348° |
| 2026-04-28 22:56 | 53.15342 | -1.73135 | 34720 ft | 441 kts | 348° |
| 2026-04-28 22:56 | 53.18213 | -1.74926 | 34974 ft | 440 kts | 347° |
| 2026-04-28 22:56 | 53.21080 | -1.76713 | 35218 ft | 440 kts | 347° |
| 2026-04-28 22:57 | 53.23946 | -1.78499 | 35462 ft | 440 kts | 347° |
| 2026-04-28 22:57 | 53.26812 | -1.80285 | 35706 ft | 439 kts | 347° |
| 2026-04-28 22:57 | 53.29675 | -1.82071 | 35931 ft | 439 kts | 347° |
| 2026-04-28 22:57 | 53.32534 | -1.83857 | 36151 ft | 438 kts | 347° |
| 2026-04-28 22:58 | 53.35385 | -1.85641 | 36364 ft | 438 kts | 347° |
| 2026-04-28 22:58 | 53.38243 | -1.87431 | 36571 ft | 438 kts | 347° |
| 2026-04-28 22:58 | 53.41096 | -1.89222 | 36784 ft | 438 kts | 346° |
| 2026-04-28 22:58 | 53.43019 | -1.90430 | 36923 ft | 437 kts | 346° |
| 2026-04-28 22:59 | 53.46791 | -1.92805 | 37191 ft | 437 kts | 346° |
| 2026-04-28 22:59 | 53.48678 | -1.93994 | 37307 ft | 436 kts | 346° |
| 2026-04-28 22:59 | 53.51519 | -1.95787 | 37488 ft | 436 kts | 346° |
| 2026-04-28 22:59 | 53.54359 | -1.97582 | 37659 ft | 436 kts | 346° |
| 2026-04-28 23:00 | 53.57201 | -1.99381 | 37858 ft | 436 kts | 346° |
| 2026-04-28 23:00 | 53.60033 | -2.01177 | 38048 ft | 435 kts | 346° |
| 2026-04-28 23:00 | 53.62860 | -2.02972 | 38213 ft | 434 kts | 346° |
| 2026-04-28 23:00 | 53.65688 | -2.04770 | 38375 ft | 434 kts | 345° |
| 2026-04-28 23:01 | 53.68514 | -2.06569 | 38442 ft | 434 kts | 345° |
| 2026-04-28 23:01 | 53.74144 | -2.10163 | 38439 ft | 432 kts | 345° |
| 2026-04-28 23:02 | 53.79735 | -2.13897 | 38448 ft | 433 kts | 344° |
| 2026-04-28 23:02 | 53.85310 | -2.17745 | 38466 ft | 432 kts | 344° |
| 2026-04-28 23:03 | 53.90890 | -2.21580 | 38462 ft | 432 kts | 344° |
| 2026-04-28 23:03 | 53.96456 | -2.25401 | 38458 ft | 432 kts | 344° |
| 2026-04-28 23:04 | 54.02021 | -2.29230 | 38459 ft | 432 kts | 343° |
| 2026-04-28 23:04 | 54.10269 | -2.35574 | 38467 ft | 434 kts | 341° |
| 2026-04-28 23:05 | 54.15751 | -2.39872 | 38470 ft | 434 kts | 341° |
| 2026-04-28 23:05 | 54.21240 | -2.44143 | 38470 ft | 433 kts | 341° |
| 2026-04-28 23:06 | 54.26725 | -2.48415 | 38476 ft | 433 kts | 341° |
| 2026-04-28 23:06 | 54.32214 | -2.52704 | 38480 ft | 433 kts | 341° |
| 2026-04-28 23:07 | 54.37693 | -2.57000 | 38482 ft | 433 kts | 341° |
| 2026-04-28 23:07 | 54.43166 | -2.61304 | 38484 ft | 433 kts | 341° |
| 2026-04-28 23:08 | 54.48640 | -2.65621 | 38483 ft | 433 kts | 341° |
| 2026-04-28 23:08 | 54.54110 | -2.69948 | 38486 ft | 433 kts | 341° |
| 2026-04-28 23:09 | 54.59581 | -2.74288 | 38488 ft | 433 kts | 341° |
| 2026-04-28 23:09 | 54.65048 | -2.78638 | 38490 ft | 433 kts | 341° |
| 2026-04-28 23:10 | 54.70517 | -2.83002 | 38499 ft | 433 kts | 340° |
| 2026-04-28 23:10 | 54.75985 | -2.87379 | 38498 ft | 433 kts | 340° |
| 2026-04-28 23:11 | 54.81446 | -2.91762 | 38495 ft | 433 kts | 340° |
| 2026-04-28 23:11 | 54.86905 | -2.96157 | 38497 ft | 433 kts | 340° |
| 2026-04-28 23:12 | 54.92364 | -3.00566 | 38500 ft | 433 kts | 340° |
| 2026-04-28 23:12 | 54.97786 | -3.04958 | 38495 ft | 432 kts | 340° |
| 2026-04-28 23:13 | 55.03235 | -3.09385 | 38499 ft | 432 kts | 340° |
| 2026-04-28 23:13 | 55.08687 | -3.13828 | 38498 ft | 432 kts | 340° |
| 2026-04-28 23:14 | 55.14131 | -3.18277 | 38504 ft | 432 kts | 340° |
| 2026-04-28 23:14 | 55.19577 | -3.22742 | 38492 ft | 432 kts | 339° |
| 2026-04-28 23:15 | 55.25019 | -3.27216 | 38488 ft | 432 kts | 339° |
| 2026-04-28 23:15 | 55.30458 | -3.31703 | 38485 ft | 432 kts | 339° |
| 2026-04-28 23:16 | 55.35897 | -3.36202 | 38489 ft | 432 kts | 339° |
| 2026-04-28 23:16 | 55.41338 | -3.40718 | 38492 ft | 432 kts | 339° |
| 2026-04-28 23:17 | 55.46774 | -3.45242 | 38488 ft | 433 kts | 339° |
| 2026-04-28 23:17 | 55.52221 | -3.49789 | 38499 ft | 433 kts | 339° |
| 2026-04-28 23:18 | 55.57659 | -3.54344 | 38501 ft | 433 kts | 338° |
| 2026-04-28 23:18 | 55.63103 | -3.58918 | 38503 ft | 433 kts | 338° |
| 2026-04-28 23:19 | 55.68543 | -3.63502 | 38506 ft | 433 kts | 338° |
| 2026-04-28 23:19 | 55.73981 | -3.68099 | 38508 ft | 433 kts | 338° |
| 2026-04-28 23:20 | 55.79421 | -3.72712 | 38508 ft | 433 kts | 338° |
| 2026-04-28 23:20 | 55.84859 | -3.77338 | 38510 ft | 433 kts | 338° |
| 2026-04-28 23:21 | 55.90294 | -3.81974 | 38511 ft | 433 kts | 338° |
| 2026-04-28 23:21 | 55.95726 | -3.86624 | 38509 ft | 433 kts | 338° |
| 2026-04-28 23:22 | 56.01125 | -3.91259 | 38512 ft | 433 kts | 337° |
| 2026-04-28 23:22 | 56.06555 | -3.95936 | 38513 ft | 433 kts | 337° |
| 2026-04-28 23:23 | 56.11986 | -4.00628 | 38510 ft | 433 kts | 337° |
| 2026-04-28 23:23 | 56.17416 | -4.05335 | 38509 ft | 433 kts | 337° |
| 2026-04-28 23:24 | 56.22834 | -4.10045 | 38507 ft | 433 kts | 336° |
| 2026-04-28 23:24 | 56.28253 | -4.14773 | 38512 ft | 433 kts | 336° |
| 2026-04-28 23:25 | 56.33664 | -4.19506 | 38509 ft | 432 kts | 336° |
| 2026-04-28 23:25 | 56.39072 | -4.24250 | 38507 ft | 432 kts | 336° |
| 2026-04-28 23:26 | 56.44478 | -4.29005 | 38504 ft | 432 kts | 336° |
| 2026-04-28 23:26 | 56.49724 | -4.34356 | 38499 ft | 433 kts | 331° |
| 2026-04-28 23:27 | 56.54908 | -4.39921 | 38495 ft | 433 kts | 332° |
| 2026-04-28 23:27 | 56.60103 | -4.45481 | 38497 ft | 434 kts | 331° |
| 2026-04-28 23:28 | 56.65290 | -4.51071 | 38500 ft | 434 kts | 331° |
| 2026-04-28 23:28 | 56.70477 | -4.56687 | 38493 ft | 434 kts | 331° |
| 2026-04-28 23:29 | 56.75657 | -4.62319 | 38488 ft | 434 kts | 330° |
| 2026-04-28 23:29 | 56.80834 | -4.67971 | 38489 ft | 434 kts | 330° |
| 2026-04-28 23:30 | 56.86012 | -4.73642 | 38484 ft | 434 kts | 330° |
| 2026-04-28 23:30 | 56.91189 | -4.79331 | 38487 ft | 434 kts | 330° |
| 2026-04-28 23:31 | 56.96366 | -4.85038 | 38483 ft | 434 kts | 330° |
| 2026-04-28 23:31 | 57.01539 | -4.90760 | 38487 ft | 434 kts | 330° |
| 2026-04-28 23:32 | 57.06713 | -4.96501 | 38488 ft | 435 kts | 329° |
| 2026-04-28 23:32 | 57.11885 | -5.02259 | 38485 ft | 435 kts | 329° |
| 2026-04-28 23:33 | 57.17054 | -5.08034 | 38485 ft | 435 kts | 329° |
| 2026-04-28 23:33 | 57.22221 | -5.13825 | 38484 ft | 435 kts | 329° |
| 2026-04-28 23:34 | 57.27387 | -5.19634 | 38483 ft | 435 kts | 329° |
| 2026-04-28 23:34 | 57.32548 | -5.25458 | 38485 ft | 435 kts | 329° |
| 2026-04-28 23:35 | 57.37706 | -5.31296 | 38483 ft | 434 kts | 329° |
| 2026-04-28 23:35 | 57.42862 | -5.37153 | 38478 ft | 434 kts | 328° |
| 2026-04-28 23:36 | 57.47977 | -5.42982 | 38478 ft | 434 kts | 328° |
| 2026-04-28 23:36 | 57.53122 | -5.48865 | 38480 ft | 434 kts | 328° |
| 2026-04-28 23:37 | 57.58263 | -5.54762 | 38477 ft | 434 kts | 328° |
| 2026-04-28 23:37 | 57.63437 | -5.60718 | 38478 ft | 434 kts | 328° |
| 2026-04-28 23:38 | 57.68541 | -5.66614 | 38481 ft | 434 kts | 328° |
| 2026-04-28 23:38 | 57.73679 | -5.72568 | 38475 ft | 434 kts | 328° |
| 2026-04-28 23:39 | 57.78810 | -5.78535 | 38476 ft | 434 kts | 327° |
| 2026-04-28 23:39 | 57.83946 | -5.84527 | 38477 ft | 435 kts | 327° |
| 2026-04-28 23:40 | 57.89078 | -5.90536 | 38478 ft | 435 kts | 327° |
| 2026-04-28 23:40 | 57.94208 | -5.96562 | 38478 ft | 435 kts | 327° |
| 2026-04-28 23:41 | 57.99339 | -6.02611 | 38482 ft | 435 kts | 327° |
| 2026-04-28 23:41 | 58.04466 | -6.08675 | 38482 ft | 435 kts | 327° |
| 2026-04-28 23:42 | 58.09591 | -6.14758 | 38484 ft | 435 kts | 327° |
| 2026-04-28 23:42 | 58.14710 | -6.20855 | 38488 ft | 435 kts | 326° |
| 2026-04-28 23:43 | 58.19827 | -6.26971 | 38488 ft | 435 kts | 326° |
| 2026-04-28 23:43 | 58.24944 | -6.33106 | 38489 ft | 435 kts | 326° |
| 2026-04-28 23:44 | 58.30053 | -6.39255 | 38488 ft | 435 kts | 326° |
| 2026-04-28 23:44 | 58.35159 | -6.45421 | 38485 ft | 435 kts | 326° |
| 2026-04-28 23:45 | 58.40260 | -6.51601 | 38482 ft | 434 kts | 326° |
| 2026-04-28 23:45 | 58.44495 | -6.56749 | 38482 ft | 434 kts | 326° |
| 2026-04-28 23:46 | 58.49587 | -6.62960 | 38481 ft | 434 kts | 325° |
| 2026-04-28 23:46 | 58.54675 | -6.69186 | 38473 ft | 434 kts | 325° |
| 2026-04-28 23:47 | 58.59755 | -6.75425 | 38470 ft | 434 kts | 325° |
| 2026-04-28 23:47 | 58.64835 | -6.81685 | 38471 ft | 434 kts | 325° |
| 2026-04-28 23:48 | 58.69907 | -6.87958 | 38470 ft | 434 kts | 325° |
| 2026-04-28 23:48 | 58.74980 | -6.94254 | 38466 ft | 434 kts | 324° |
| 2026-04-28 23:49 | 58.80052 | -7.00571 | 38468 ft | 434 kts | 324° |
| 2026-04-28 23:49 | 58.85124 | -7.06910 | 38467 ft | 434 kts | 324° |
| 2026-04-28 23:50 | 58.90192 | -7.13267 | 38467 ft | 434 kts | 324° |
| 2026-04-28 23:50 | 58.95259 | -7.19645 | 38472 ft | 435 kts | 324° |
| 2026-04-28 23:51 | 59.00332 | -7.26054 | 38467 ft | 435 kts | 324° |
| 2026-04-28 23:51 | 59.05401 | -7.32481 | 38470 ft | 435 kts | 324° |
| 2026-04-28 23:52 | 59.10422 | -7.38869 | 38465 ft | 435 kts | 324° |
| 2026-04-28 23:52 | 59.15487 | -7.45336 | 38464 ft | 436 kts | 324° |
| 2026-04-28 23:53 | 59.20552 | -7.51827 | 38464 ft | 436 kts | 324° |
| 2026-04-28 23:53 | 59.25613 | -7.58335 | 38462 ft | 436 kts | 324° |
| 2026-04-28 23:54 | 59.30672 | -7.64866 | 38461 ft | 436 kts | 324° |
| 2026-04-28 23:54 | 59.35729 | -7.71416 | 38456 ft | 436 kts | 324° |
| 2026-04-28 23:55 | 59.40781 | -7.77986 | 38454 ft | 436 kts | 324° |
| 2026-04-28 23:55 | 59.42910 | -7.80763 | 38452 ft | 436 kts | 324° |
| 2026-04-28 23:56 | 59.47576 | -7.86860 | 38453 ft | 436 kts | 324° |
| 2026-04-28 23:56 | 59.52617 | -7.93472 | 38446 ft | 436 kts | 324° |
| 2026-04-28 23:57 | 59.57656 | -8.00105 | 38452 ft | 435 kts | 324° |
| 2026-04-28 23:57 | 59.62693 | -8.06759 | 38435 ft | 435 kts | 324° |
| 2026-04-28 23:58 | 59.67721 | -8.13425 | 38434 ft | 435 kts | 324° |
| 2026-04-28 23:58 | 59.72749 | -8.20116 | 38439 ft | 435 kts | 323° |
| 2026-04-28 23:59 | 59.77773 | -8.26826 | 38442 ft | 435 kts | 323° |
| 2026-04-28 23:59 | 59.82704 | -8.33436 | 38422 ft | 435 kts | 323° |
| 2026-04-29 00:00 | 59.87723 | -8.40189 | 38420 ft | 436 kts | 323° |
| 2026-04-29 00:00 | 59.92743 | -8.46967 | 38412 ft | 436 kts | 323° |
| 2026-04-29 00:01 | 59.97764 | -8.53772 | 38414 ft | 437 kts | 323° |
| 2026-04-29 00:01 | 60.02789 | -8.60609 | 38413 ft | 437 kts | 323° |
| 2026-04-29 00:02 | 60.07813 | -8.67469 | 38412 ft | 438 kts | 323° |
| 2026-04-29 00:02 | 60.12842 | -8.74363 | 38410 ft | 438 kts | 323° |
| 2026-04-29 00:03 | 60.17876 | -8.81289 | 38410 ft | 439 kts | 323° |
| 2026-04-29 00:03 | 60.22911 | -8.88243 | 38407 ft | 440 kts | 323° |
| 2026-04-29 00:04 | 60.27953 | -8.95233 | 38404 ft | 440 kts | 322° |
| 2026-04-29 00:04 | 60.32965 | -9.02207 | 38400 ft | 441 kts | 322° |
| 2026-04-29 00:05 | 60.38008 | -9.09253 | 38402 ft | 441 kts | 322° |
| 2026-04-29 00:05 | 60.43057 | -9.16332 | 38396 ft | 441 kts | 322° |
| 2026-04-29 00:06 | 60.48105 | -9.23430 | 38392 ft | 442 kts | 322° |
| 2026-04-29 00:06 | 60.53150 | -9.30544 | 38387 ft | 442 kts | 322° |
| 2026-04-29 00:07 | 60.58200 | -9.37691 | 38382 ft | 442 kts | 322° |
| 2026-04-29 00:07 | 60.63155 | -9.45061 | 38375 ft | 441 kts | 320° |
| 2026-04-29 00:08 | 60.68144 | -9.52379 | 38368 ft | 442 kts | 321° |
| 2026-04-29 00:08 | 60.73144 | -9.59697 | 38365 ft | 442 kts | 320° |
| 2026-04-29 00:09 | 60.78186 | -9.67175 | 38360 ft | 442 kts | 320° |
| 2026-04-29 00:09 | 60.83149 | -9.74586 | 38352 ft | 442 kts | 320° |
| 2026-04-29 00:10 | 60.88109 | -9.82024 | 38341 ft | 442 kts | 319° |
| 2026-04-29 00:10 | 60.93065 | -9.89481 | 38342 ft | 442 kts | 319° |
| 2026-04-29 00:11 | 60.97843 | -9.97341 | 38334 ft | 437 kts | 310° |
| 2026-04-29 00:11 | 61.01715 | -10.06818 | 38329 ft | 429 kts | 299° |
| 2026-04-29 00:12 | 61.03266 | -10.12037 | 38324 ft | 426 kts | 294° |
| 2026-04-29 00:12 | 61.06166 | -10.22697 | 38330 ft | 426 kts | 295° |
| 2026-04-29 00:13 | 61.09081 | -10.33358 | 38330 ft | 426 kts | 294° |
| 2026-04-29 00:13 | 61.11982 | -10.44047 | 38325 ft | 426 kts | 294° |
| 2026-04-29 00:14 | 61.14866 | -10.54759 | 38325 ft | 426 kts | 294° |
| 2026-04-29 00:14 | 61.17734 | -10.65484 | 38324 ft | 425 kts | 294° |
| 2026-04-29 00:15 | 61.20587 | -10.76209 | 38310 ft | 424 kts | 293° |
| 2026-04-29 00:15 | 61.23418 | -10.86901 | 38304 ft | 423 kts | 293° |
| 2026-04-29 00:16 | 61.26220 | -10.97538 | 38301 ft | 422 kts | 293° |
| 2026-04-29 00:16 | 61.29032 | -11.08261 | 38293 ft | 422 kts | 292° |
| 2026-04-29 00:17 | 61.31832 | -11.18989 | 38289 ft | 422 kts | 292° |
| 2026-04-29 00:17 | 61.34622 | -11.29733 | 38288 ft | 421 kts | 292° |
| 2026-04-29 00:18 | 61.37402 | -11.40487 | 38283 ft | 421 kts | 292° |
| 2026-04-29 00:18 | 61.40169 | -11.51243 | 38277 ft | 421 kts | 292° |
| 2026-04-29 00:19 | 61.42926 | -11.62014 | 38273 ft | 420 kts | 291° |
| 2026-04-29 00:19 | 61.45674 | -11.72801 | 38266 ft | 420 kts | 291° |
| 2026-04-29 00:20 | 61.48411 | -11.83598 | 38264 ft | 420 kts | 291° |
| 2026-04-29 00:20 | 61.51137 | -11.94406 | 38261 ft | 420 kts | 291° |
| 2026-04-29 00:21 | 61.53855 | -12.05232 | 38254 ft | 419 kts | 291° |
| 2026-04-29 00:21 | 61.56560 | -12.16058 | 38254 ft | 419 kts | 290° |
| 2026-04-29 00:22 | 61.59255 | -12.26902 | 38246 ft | 419 kts | 290° |
| 2026-04-29 00:22 | 61.61939 | -12.37753 | 38240 ft | 418 kts | 290° |
| 2026-04-29 00:23 | 61.64614 | -12.48621 | 38236 ft | 418 kts | 290° |
| 2026-04-29 00:23 | 61.67276 | -12.59489 | 38234 ft | 418 kts | 290° |
| 2026-04-29 00:24 | 61.69909 | -12.70293 | 38228 ft | 417 kts | 289° |
| 2026-04-29 00:24 | 61.72549 | -12.81177 | 38227 ft | 417 kts | 289° |
| 2026-04-29 00:25 | 61.75179 | -12.92077 | 38209 ft | 416 kts | 289° |
| 2026-04-29 00:25 | 61.77796 | -13.02974 | 38210 ft | 416 kts | 289° |
| 2026-04-29 00:26 | 61.80402 | -13.13884 | 38204 ft | 415 kts | 289° |
| 2026-04-29 00:26 | 61.82997 | -13.24802 | 38200 ft | 415 kts | 288° |
| 2026-04-29 00:27 | 61.85581 | -13.35728 | 38198 ft | 415 kts | 288° |
| 2026-04-29 00:27 | 61.88154 | -13.46661 | 38188 ft | 414 kts | 288° |
| 2026-04-29 00:28 | 61.90716 | -13.57601 | 38181 ft | 414 kts | 288° |
| 2026-04-29 00:28 | 61.93268 | -13.68557 | 38179 ft | 414 kts | 288° |
| 2026-04-29 00:29 | 61.95808 | -13.79518 | 38178 ft | 414 kts | 287° |
| 2026-04-29 00:29 | 61.97913 | -13.88642 | 38174 ft | 413 kts | 287° |
| 2026-04-29 00:30 | 62.00437 | -13.99635 | 38164 ft | 413 kts | 287° |
| 2026-04-29 00:30 | 62.02950 | -14.10638 | 38172 ft | 413 kts | 287° |
| 2026-04-29 00:31 | 62.05454 | -14.21658 | 38159 ft | 413 kts | 287° |
| 2026-04-29 00:31 | 62.07948 | -14.32690 | 38150 ft | 413 kts | 287° |
| 2026-04-29 00:32 | 62.10432 | -14.43733 | 38147 ft | 413 kts | 287° |
| 2026-04-29 00:32 | 62.12905 | -14.54787 | 38146 ft | 412 kts | 286° |
| 2026-04-29 00:33 | 62.15370 | -14.65861 | 38138 ft | 412 kts | 286° |
| 2026-04-29 00:33 | 62.17824 | -14.76945 | 38133 ft | 412 kts | 286° |
| 2026-04-29 00:34 | 62.20271 | -14.88051 | 38130 ft | 412 kts | 286° |
| 2026-04-29 00:34 | 62.22709 | -14.99178 | 38125 ft | 412 kts | 286° |
| 2026-04-29 00:35 | 62.25139 | -15.10328 | 38120 ft | 413 kts | 285° |
| 2026-04-29 00:35 | 62.27560 | -15.21497 | 38116 ft | 413 kts | 285° |
| 2026-04-29 00:36 | 62.29972 | -15.32680 | 38112 ft | 413 kts | 285° |
| 2026-04-29 00:36 | 62.32376 | -15.43890 | 38115 ft | 414 kts | 285° |
| 2026-04-29 00:37 | 62.34779 | -15.55153 | 38101 ft | 414 kts | 285° |
| 2026-04-29 00:37 | 62.37166 | -15.66390 | 38110 ft | 412 kts | 285° |
| 2026-04-29 00:38 | 62.39541 | -15.77649 | 38096 ft | 413 kts | 285° |
| 2026-04-29 00:38 | 62.41908 | -15.88920 | 38097 ft | 412 kts | 285° |
| 2026-04-29 00:39 | 62.44250 | -16.00139 | 38091 ft | 412 kts | 284° |
| 2026-04-29 00:39 | 62.46598 | -16.11442 | 38078 ft | 413 kts | 284° |
| 2026-04-29 00:40 | 62.48956 | -16.22866 | 38091 ft | 414 kts | 284° |
| 2026-04-29 00:40 | 62.51278 | -16.34159 | 38084 ft | 412 kts | 284° |
| 2026-04-29 00:41 | 62.53594 | -16.45497 | 38081 ft | 412 kts | 284° |
| 2026-04-29 00:41 | 62.55904 | -16.56873 | 38077 ft | 412 kts | 284° |
| 2026-04-29 00:42 | 62.58205 | -16.68265 | 38078 ft | 412 kts | 284° |
| 2026-04-29 00:42 | 62.60499 | -16.79678 | 38077 ft | 412 kts | 283° |
| 2026-04-29 00:43 | 62.62781 | -16.91104 | 38066 ft | 412 kts | 283° |
| 2026-04-29 00:43 | 62.65048 | -17.02516 | 38050 ft | 411 kts | 283° |
| 2026-04-29 00:44 | 62.67300 | -17.13912 | 38047 ft | 409 kts | 283° |
| 2026-04-29 00:44 | 62.69535 | -17.25294 | 38041 ft | 408 kts | 283° |
| 2026-04-29 00:45 | 62.71765 | -17.36728 | 38061 ft | 413 kts | 283° |
| 2026-04-29 00:45 | 62.74004 | -17.48250 | 38059 ft | 412 kts | 283° |
| 2026-04-29 00:46 | 62.76230 | -17.59773 | 38055 ft | 412 kts | 283° |
| 2026-04-29 00:46 | 62.78443 | -17.71297 | 38053 ft | 412 kts | 283° |
| 2026-04-29 00:47 | 62.80649 | -17.82861 | 38052 ft | 413 kts | 282° |
| 2026-04-29 00:47 | 62.82853 | -17.94472 | 38059 ft | 414 kts | 282° |
| 2026-04-29 00:48 | 62.85050 | -18.06114 | 38054 ft | 414 kts | 282° |
| 2026-04-29 00:48 | 62.87222 | -18.17693 | 38053 ft | 414 kts | 282° |
| 2026-04-29 00:49 | 62.89397 | -18.29356 | 38050 ft | 413 kts | 282° |
| 2026-04-29 00:49 | 62.91566 | -18.41043 | 38040 ft | 413 kts | 282° |
| 2026-04-29 00:50 | 62.93727 | -18.52729 | 38035 ft | 413 kts | 282° |
| 2026-04-29 00:50 | 62.95883 | -18.64438 | 38035 ft | 413 kts | 282° |
| 2026-04-29 00:51 | 62.98121 | -18.76112 | 38025 ft | 421 kts | 288° |
| 2026-04-29 00:51 | 63.01475 | -18.86982 | 38009 ft | 433 kts | 295° |
| 2026-04-29 00:52 | 63.05026 | -18.97685 | 38006 ft | 433 kts | 295° |
| 2026-04-29 00:52 | 63.08560 | -19.08458 | 38010 ft | 433 kts | 295° |
| 2026-04-29 00:53 | 63.12097 | -19.19348 | 38030 ft | 439 kts | 295° |
| 2026-04-29 00:53 | 63.15647 | -19.30316 | 38029 ft | 438 kts | 295° |
| 2026-04-29 00:54 | 63.19190 | -19.41323 | 38023 ft | 440 kts | 295° |
| 2026-04-29 00:54 | 63.22733 | -19.52383 | 38019 ft | 440 kts | 295° |
| 2026-04-29 00:55 | 63.26273 | -19.63489 | 38015 ft | 441 kts | 295° |
| 2026-04-29 00:55 | 63.29810 | -19.74641 | 38012 ft | 442 kts | 295° |
| 2026-04-29 00:56 | 63.33345 | -19.85840 | 38009 ft | 442 kts | 295° |
| 2026-04-29 00:56 | 63.36875 | -19.97081 | 38003 ft | 443 kts | 295° |
| 2026-04-29 00:57 | 63.40393 | -20.08341 | 37998 ft | 443 kts | 295° |
| 2026-04-29 00:57 | 63.43911 | -20.19657 | 37999 ft | 443 kts | 295° |
| 2026-04-29 00:58 | 63.47417 | -20.30991 | 37991 ft | 443 kts | 295° |
| 2026-04-29 00:58 | 63.50918 | -20.42364 | 37986 ft | 443 kts | 295° |
| 2026-04-29 00:59 | 63.54407 | -20.53752 | 37977 ft | 443 kts | 295° |
| 2026-04-29 00:59 | 63.57394 | -20.65623 | 37971 ft | 433 kts | 287° |
| 2026-04-29 01:00 | 63.60082 | -20.77741 | 37969 ft | 434 kts | 287° |
| 2026-04-29 01:00 | 63.62778 | -20.89882 | 37959 ft | 434 kts | 287° |
| 2026-04-29 01:01 | 63.65454 | -21.02055 | 37956 ft | 434 kts | 288° |
| 2026-04-29 01:01 | 63.68812 | -21.13615 | 37961 ft | 450 kts | 300° |
| 2026-04-29 01:02 | 63.72733 | -21.24612 | 37944 ft | 449 kts | 299° |
| 2026-04-29 01:02 | 63.76598 | -21.35591 | 37944 ft | 450 kts | 299° |
| 2026-04-29 01:03 | 63.80488 | -21.46682 | 37931 ft | 450 kts | 299° |
| 2026-04-29 01:03 | 63.84380 | -21.57822 | 37927 ft | 451 kts | 299° |
| 2026-04-29 01:04 | 63.88276 | -21.68995 | 37919 ft | 452 kts | 300° |
| 2026-04-29 01:04 | 63.92190 | -21.80203 | 37917 ft | 453 kts | 299° |
| 2026-04-29 01:05 | 63.96072 | -21.91512 | 37917 ft | 454 kts | 299° |
| 2026-04-29 01:05 | 63.99936 | -22.02878 | 37916 ft | 454 kts | 299° |
| 2026-04-29 01:06 | 64.03801 | -22.14271 | 37914 ft | 455 kts | 299° |
| 2026-04-29 01:06 | 64.07680 | -22.25680 | 37909 ft | 456 kts | 301° |
| 2026-04-29 01:07 | 64.12356 | -22.35851 | 37902 ft | 473 kts | 315° |
| 2026-04-29 01:07 | 64.14863 | -22.40629 | 37864 ft | 462 kts | 305° |
| 2026-04-29 01:07 | 64.16841 | -22.46269 | 37856 ft | 447 kts | 293° |
| 2026-04-29 01:07 | 64.18204 | -22.52530 | 37855 ft | 432 kts | 281° |
| 2026-04-29 01:08 | 64.18908 | -22.59095 | 37835 ft | 418 kts | 268° |
| 2026-04-29 01:08 | 64.18942 | -22.65654 | 37844 ft | 406 kts | 256° |
| 2026-04-29 01:08 | 64.18317 | -22.71863 | 37884 ft | 396 kts | 244° |
| 2026-04-29 01:08 | 64.17077 | -22.77458 | 37880 ft | 393 kts | 232° |
| 2026-04-29 01:09 | 64.15291 | -22.82147 | 37876 ft | 391 kts | 219° |
| 2026-04-29 01:09 | 64.13064 | -22.85667 | 37878 ft | 390 kts | 207° |
| 2026-04-29 01:09 | 64.10520 | -22.87821 | 37875 ft | 393 kts | 195° |
| 2026-04-29 01:09 | 64.07783 | -22.88492 | 37879 ft | 400 kts | 183° |
| 2026-04-29 01:10 | 64.05001 | -22.87624 | 37880 ft | 410 kts | 171° |
| 2026-04-29 01:10 | 64.02311 | -22.85227 | 37882 ft | 422 kts | 158° |
| 2026-04-29 01:10 | 63.99857 | -22.81401 | 37884 ft | 434 kts | 147° |
| 2026-04-29 01:11 | 63.95044 | -22.73399 | 37885 ft | 419 kts | 163° |
| 2026-04-29 01:11 | 63.92324 | -22.71355 | 37884 ft | 407 kts | 175° |
| 2026-04-29 01:11 | 63.89542 | -22.70793 | 37887 ft | 398 kts | 186° |
| 2026-04-29 01:12 | 63.84051 | -22.71927 | 37893 ft | 396 kts | 191° |
| 2026-04-29 01:12 | 63.78644 | -22.73607 | 37885 ft | 393 kts | 192° |
| 2026-04-29 01:13 | 63.73227 | -22.75343 | 37885 ft | 393 kts | 192° |
| 2026-04-29 01:13 | 63.67811 | -22.77082 | 37888 ft | 393 kts | 192° |
| 2026-04-29 01:14 | 63.62398 | -22.78816 | 37892 ft | 393 kts | 192° |
| 2026-04-29 01:14 | 63.56950 | -22.80559 | 37897 ft | 392 kts | 192° |
| 2026-04-29 01:15 | 63.51548 | -22.82284 | 37895 ft | 392 kts | 192° |
| 2026-04-29 01:15 | 63.48853 | -22.83143 | 37698 ft | 389 kts | 192° |
| 2026-04-29 01:15 | 63.46222 | -22.84094 | 36916 ft | 386 kts | 198° |
| 2026-04-29 01:15 | 63.43687 | -22.86198 | 35848 ft | 384 kts | 210° |
| 2026-04-29 01:16 | 63.41512 | -22.89598 | 34892 ft | 381 kts | 222° |
| 2026-04-29 01:16 | 63.39818 | -22.94021 | 34020 ft | 380 kts | 233° |
| 2026-04-29 01:16 | 63.38967 | -22.97527 | 33316 ft | 382 kts | 241° |
| 2026-04-29 01:16 | 63.38090 | -23.05220 | 31781 ft | 396 kts | 257° |
| 2026-04-29 01:17 | 63.38176 | -23.11458 | 30600 ft | 412 kts | 268° |
| 2026-04-29 01:17 | 63.38929 | -23.17757 | 29258 ft | 431 kts | 280° |
| 2026-04-29 01:17 | 63.40350 | -23.23789 | 27963 ft | 449 kts | 292° |
| 2026-04-29 01:17 | 63.41669 | -23.27530 | 27226 ft | 459 kts | 301° |
| 2026-04-29 01:18 | 63.44968 | -23.33660 | 25882 ft | 475 kts | 317° |
| 2026-04-29 01:18 | 63.50175 | -23.38396 | 24279 ft | 492 kts | 340° |
| 2026-04-29 01:18 | 63.53599 | -23.39263 | 23362 ft | 499 kts | 353° |
| 2026-04-29 01:19 | 63.57019 | -23.38544 | 22349 ft | 502 kts | 7° |
| 2026-04-29 01:19 | 63.60345 | -23.36216 | 21392 ft | 501 kts | 22° |
| 2026-04-29 01:19 | 63.63351 | -23.32380 | 20446 ft | 495 kts | 37° |
| 2026-04-29 01:19 | 63.65873 | -23.27235 | 19527 ft | 485 kts | 52° |
| 2026-04-29 01:20 | 63.67768 | -23.21092 | 18624 ft | 471 kts | 67° |
| 2026-04-29 01:20 | 63.69341 | -23.14670 | 17668 ft | 468 kts | 62° |
| 2026-04-29 01:20 | 63.71290 | -23.08832 | 16759 ft | 465 kts | 50° |
| 2026-04-29 01:20 | 63.73634 | -23.03859 | 15880 ft | 460 kts | 40° |
| 2026-04-29 01:21 | 63.76213 | -22.99720 | 15016 ft | 453 kts | 30° |
| 2026-04-29 01:21 | 63.78991 | -22.96498 | 14182 ft | 445 kts | 22° |
| 2026-04-29 01:21 | 63.81794 | -22.93634 | 13322 ft | 438 kts | 22° |
| 2026-04-29 01:21 | 63.84580 | -22.90980 | 12411 ft | 430 kts | 14° |
| 2026-04-29 01:22 | 63.87447 | -22.89430 | 11531 ft | 420 kts | 7° |
| 2026-04-29 01:22 | 63.90296 | -22.88152 | 10606 ft | 416 kts | 7° |
| 2026-04-29 01:22 | 63.93127 | -22.86914 | 9633 ft | 413 kts | 7° |
| 2026-04-29 01:22 | 63.95940 | -22.85711 | 8580 ft | 409 kts | 7° |
| 2026-04-29 01:23 | 63.98725 | -22.84569 | 7556 ft | 404 kts | 7° |
| 2026-04-29 01:23 | 64.01476 | -22.83485 | 6567 ft | 399 kts | 7° |
| 2026-04-29 01:23 | 64.04190 | -22.82457 | 5542 ft | 393 kts | 7° |
| 2026-04-29 01:23 | 64.06855 | -22.81458 | 4732 ft | 382 kts | 7° |
| 2026-04-29 01:24 | 64.09422 | -22.80493 | 4219 ft | 364 kts | 7° |
| 2026-04-29 01:24 | 64.11859 | -22.79537 | 3823 ft | 347 kts | 8° |
| 2026-04-29 01:24 | 64.14096 | -22.77914 | 3494 ft | 331 kts | 28° |
| 2026-04-29 01:24 | 64.15799 | -22.74690 | 3280 ft | 307 kts | 56° |
| 2026-04-29 01:25 | 64.16697 | -22.70553 | 3116 ft | 276 kts | 84° |
| 2026-04-29 01:25 | 64.16691 | -22.66493 | 3075 ft | 238 kts | 115° |
| 2026-04-29 01:25 | 64.15943 | -22.63544 | 3025 ft | 196 kts | 145° |
| 2026-04-29 01:25 | 64.14996 | -22.61542 | 2989 ft | 178 kts | 149° |
| 2026-04-29 01:26 | 64.13917 | -22.60523 | 2970 ft | 166 kts | 180° |
| 2026-04-29 01:26 | 64.12783 | -22.60474 | 2929 ft | 162 kts | 188° |
| 2026-04-29 01:26 | 64.11652 | -22.60537 | 2762 ft | 163 kts | 184° |
| 2026-04-29 01:26 | 64.10530 | -22.60535 | 2570 ft | 157 kts | 185° |
| 2026-04-29 01:27 | 64.09481 | -22.60532 | 2331 ft | 143 kts | 185° |
| 2026-04-29 01:27 | 64.08552 | -22.60531 | 2130 ft | 125 kts | 186° |
| 2026-04-29 01:27 | 64.07731 | -22.60532 | 1957 ft | 113 kts | 186° |
| 2026-04-29 01:27 | 64.06925 | -22.60540 | 1801 ft | 116 kts | 185° |
| 2026-04-29 01:28 | 64.06154 | -22.60534 | 1649 ft | 107 kts | 186° |
| 2026-04-29 01:28 | 64.05399 | -22.60540 | 1496 ft | 109 kts | 186° |
| 2026-04-29 01:28 | 64.04649 | -22.60538 | 1342 ft | 107 kts | 186° |
| 2026-04-29 01:28 | 64.03902 | -22.60540 | 1179 ft | 108 kts | 185° |
| 2026-04-29 01:29 | 64.03141 | -22.60541 | 1022 ft | 112 kts | 185° |
| 2026-04-29 01:29 | 64.02370 | -22.60540 | 842 ft | 109 kts | 186° |
| 2026-04-29 01:29 | 64.01607 | -22.60543 | 687 ft | 111 kts | 186° |
| 2026-04-29 01:29 | 64.00823 | -22.60542 | 533 ft | 114 kts | 187° |
| 2026-04-29 01:30 | 64.00016 | -22.60532 | 366 ft | 117 kts | 186° |
| 2026-04-29 01:30 | 63.99216 | -22.60537 | 234 ft | 113 kts | 188° |
| 2026-04-29 01:30 | 63.98450 | -22.60538 | 176 ft | 103 kts | 187° |
| 2026-04-29 01:30 | 63.97999 | -22.60573 | 171 ft | 34 kts | 171° |
| 2026-04-29 01:31 | 63.97796 | -22.60543 | 172 ft | 27 kts | 182° |
| 2026-04-29 01:31 | 63.97614 | -22.60549 | 173 ft | 25 kts | 182° |
| 2026-04-29 01:31 | 63.97452 | -22.60634 | 171 ft | 22 kts | 231° |
| 2026-04-29 01:31 | 63.97465 | -22.60894 | 166 ft | 13 kts | 303° |
| 2026-04-29 01:32 | 63.97539 | -22.60944 | 166 ft | 8 kts | 353° |
| 2026-04-29 01:32 | 63.97690 | -22.60939 | 168 ft | 40 kts | 7° |
| 2026-04-29 01:32 | 63.97964 | -22.60941 | 169 ft | 41 kts | 359° |
| 2026-04-29 01:32 | 63.98256 | -22.60940 | 164 ft | 43 kts | 4° |
| 2026-04-29 01:33 | 63.98554 | -22.60942 | 165 ft | 40 kts | 356° |
| 2026-04-29 01:33 | 63.98804 | -22.60930 | 162 ft | 25 kts | 6° |
| 2026-04-29 01:33 | 63.98851 | -22.61009 | 162 ft | 10 kts | 294° |
| 2026-04-29 01:33 | 63.98966 | -22.61114 | 160 ft | 24 kts | 1° |
| 2026-04-29 01:34 | 63.99126 | -22.61119 | 158 ft | 20 kts | 350° |
| 2026-04-29 01:34 | 63.99191 | -22.61335 | 151 ft | 16 kts | 300° |
| 2026-04-29 01:34 | 63.99241 | -22.61499 | 146 ft | 11 kts | 288° |
| 2026-04-29 01:34 | 63.99243 | -22.61568 | 144 ft | 11 kts | 277° |